Terminal Aerodrome Forecast
Issued by NWS

Home | Current Version | Previous Version | Text Only | Print | Product List | Glossary Off
Versions: 1 2 3 4 5 6 7 8 9 10 11 12 13 14 15 16 17

073
FTUS41 KCLE 151728
TAFFDY
TAF
KFDY 151728Z 1518/1618 20012G20KT 5SM -RA BR SCT020 OVC050
     FM152000 21014G22KT 3SM -RA BR SCT007 OVC015
      TEMPO 1520/1523 BKN007 OVC015
     FM152300 23012G20KT P6SM VCSH OVC007
     FM160400 26012G20KT P6SM SCT007 BKN015 OVC025
     FM161000 26015G25KT P6SM SCT015 BKN025
     FM161400 29015G25KT P6SM BKN025=

USA.gov is the U.S. government's official web portal to all federal, state and local government web resources and services.